ePrivacy and GPDR Cookie Consent by Cookie Consent
EmailTwitter


Observations de surface / Québec / CYUL (71627)

Régions: Québec | Canada | États-Unis | Europe | France | UK | Ailleurs
Station
Affichage
Infos & localisation pour CYUL (71627) | Aide pour décoder les METARs

Observations prises le 2022-12-03 à 19H08 UTC à MONTREAL INTL A, QB (CYUL)

Etat du ciel: couvert.

Obstacle(s) à la visibilité: faible pluie.

Température: 7.0 Celsius

Point de rosée: 5.0 Celsius

Humidité relative: 87%

Facteur vent 3.

Vents: Sud-est à 24 km/h ou 13 noeuds.

Pression au niveau moyen de la mer: 100.20 kilopascals.

Calage altimétrique: 100.17 kilopascals ou 29.58 pouces de mercure.

Visibilité horizontale: 15.00 milles terrestres ou 24.00 kilomètres.

Hauteur du plafond: 792 mètres ( 2600 pieds ).

Observation METAR:

CYUL 031908Z 15013KT 15SM -RA OVC026 07/05 A2958 RMK SC8 SLP020=